Time;durP1;ratioP1;P1;durP2;ratioP2;P2;SDS_P1;SDS_P2;PMS_P1;PMS_P2;Temp;Humidity;BMP_temperature;BMP_pressure;BME280_temperature;BME280_humidity;BME280_pressure;Samples;Min_cycle;Max_cycle;Signal;HPM_P1;HPM_P2
2023/04/01 00:01:13;;;;;;;6.93;1.80;;;;;;;8.91;100.00;98916.00;5060039;28;20110;-61
2023/04/01 00:03:43;;;;;;;5.43;2.17;;;;;;;8.91;100.00;98916.81;5069665;28;20057;-60
2023/04/01 00:06:14;;;;;;;7.20;2.13;;;;;;;8.96;100.00;98917.25;5073397;28;20472;-61
2023/04/01 00:08:44;;;;;;;6.85;2.17;;;;;;;8.89;100.00;98918.78;5064597;28;20064;-61
2023/04/01 00:11:12;;;;;;;5.22;2.50;;;;;;;8.96;100.00;98914.63;5059675;28;20040;-60
2023/04/01 00:13:40;;;;;;;6.40;2.42;;;;;;;8.91;100.00;98922.06;5065504;28;20089;-60
2023/04/01 00:16:09;;;;;;;8.73;2.25;;;;;;;8.93;100.00;98928.03;5060788;28;20064;-60
2023/04/01 00:18:51;;;;;;;7.60;2.10;;;;;;;8.93;100.00;98925.41;5059608;28;20134;-60
2023/04/01 00:21:23;;;;;;;5.95;1.98;;;;;;;8.89;100.00;98926.63;5057611;28;20036;-60
2023/04/01 00:23:51;;;;;;;6.28;2.15;;;;;;;8.89;100.00;98924.03;5058593;28;20492;-60
2023/04/01 00:26:21;;;;;;;7.95;2.30;;;;;;;8.88;100.00;98927.59;5062271;28;20441;-60
2023/04/01 00:28:50;;;;;;;6.28;2.47;;;;;;;8.84;100.00;98926.22;5058322;28;20040;-60
2023/04/01 00:31:19;;;;;;;5.30;2.25;;;;;;;8.89;100.00;98920.53;5057585;28;20044;-60
2023/04/01 00:33:47;;;;;;;7.28;2.28;;;;;;;8.87;100.00;98923.31;5060402;28;20495;-61
2023/04/01 00:36:19;;;;;;;6.00;2.28;;;;;;;8.92;100.00;98931.59;5059786;28;20045;-60
2023/04/01 00:38:48;;;;;;;6.95;2.65;;;;;;;8.94;100.00;98924.44;5058953;28;20141;-60
2023/04/01 00:41:17;;;;;;;8.48;2.80;;;;;;;8.88;100.00;98930.22;5052172;28;20090;-61
2023/04/01 00:43:47;;;;;;;7.57;2.78;;;;;;;8.94;100.00;98929.69;5055275;28;20526;-60
2023/04/01 00:46:15;;;;;;;8.38;3.22;;;;;;;8.94;100.00;98924.44;5058358;28;20534;-60
2023/04/01 00:48:48;;;;;;;8.30;3.03;;;;;;;9.03;100.00;98929.84;5062763;28;20048;-60
2023/04/01 00:51:21;;;;;;;7.22;3.17;;;;;;;9.04;100.00;98929.69;5058072;28;20044;-60
2023/04/01 00:53:52;;;;;;;6.38;3.10;;;;;;;9.00;100.00;98930.94;5056410;28;20785;-60
2023/04/01 00:56:24;;;;;;;7.18;3.10;;;;;;;9.04;100.00;98936.72;5060987;28;20063;-60
2023/04/01 00:58:59;;;;;;;9.70;3.60;;;;;;;9.00;100.00;98933.56;5059675;28;20048;-59
2023/04/01 01:01:30;;;;;;;7.38;3.70;;;;;;;9.03;100.00;98938.53;5063782;28;20037;-60
2023/04/01 01:03:59;;;;;;;9.23;3.95;;;;;;;9.03;100.00;98937.69;5067228;28;20037;-60
2023/04/01 01:06:46;;;;;;;8.63;4.28;;;;;;;9.05;100.00;98938.38;5070292;28;20052;-61
2023/04/01 01:09:30;;;;;;;7.53;4.57;;;;;;;9.04;100.00;98940.19;5072324;28;20044;-60
2023/04/01 01:12:07;;;;;;;10.77;5.07;;;;;;;9.00;100.00;98945.81;5071337;28;20068;-60
2023/04/01 01:14:46;;;;;;;11.23;5.68;;;;;;;9.00;100.00;98943.19;5068688;28;20041;-60
2023/04/01 01:17:21;;;;;;;12.40;6.25;;;;;;;9.02;100.00;98939.47;5059015;28;20049;-60
2023/04/01 01:20:07;;;;;;;11.98;6.30;;;;;;;9.04;100.00;98944.56;5051974;28;20450;-60
2023/04/01 01:23:25;;;;;;;12.27;6.95;;;;;;;9.00;100.00;98949.28;5052010;28;20045;-61
2023/04/01 01:26:10;;;;;;;12.13;7.57;;;;;;;9.04;100.00;98944.56;5051787;28;20060;-60
2023/04/01 01:28:49;;;;;;;13.48;8.18;;;;;;;9.03;100.00;98946.38;5056053;28;20066;-59
2023/04/01 01:31:21;;;;;;;11.00;6.85;;;;;;;9.09;100.00;98948.47;5062771;28;20040;-59
2023/04/01 01:33:58;;;;;;;14.10;7.95;;;;;;;9.00;100.00;98944.03;5066358;28;20130;-60
2023/04/01 01:36:34;;;;;;;15.27;8.93;;;;;;;9.01;100.00;98950.09;5064983;28;20056;-61
2023/04/01 01:39:06;;;;;;;15.57;8.60;;;;;;;8.96;100.00;98948.72;5061558;28;20398;-61
2023/04/01 01:41:37;;;;;;;13.95;8.95;;;;;;;8.96;100.00;98947.91;5063822;28;20037;-61
2023/04/01 01:44:07;;;;;;;11.90;7.80;;;;;;;9.00;100.00;98951.06;5067003;28;20102;-61
2023/04/01 01:46:39;;;;;;;15.63;9.25;;;;;;;8.98;100.00;98953.00;5058370;28;20048;-62
2023/04/01 01:49:11;;;;;;;13.93;8.98;;;;;;;8.97;100.00;98952.16;5062471;28;20052;-61
2023/04/01 01:51:42;;;;;;;14.52;9.52;;;;;;;9.03;100.00;98953.44;5062440;28;20048;-61
2023/04/01 01:54:13;;;;;;;14.10;9.55;;;;;;;9.05;100.00;98957.59;5062238;28;20302;-61
2023/04/01 01:56:44;;;;;;;15.13;8.82;;;;;;;9.03;100.00;98954.25;5066651;28;20569;-60
2023/04/01 01:59:17;;;;;;;15.40;9.70;;;;;;;9.01;100.00;98958.78;5067157;28;20095;-61
2023/04/01 02:01:49;;;;;;;15.10;9.82;;;;;;;9.06;100.00;98959.22;5071172;28;20050;-61
2023/04/01 02:04:18;;;;;;;;;;;;;;;9.08;100.00;98966.94;5072577;28;20534;-60
2023/04/01 02:06:53;;;;;;;16.23;9.10;;;;;;;9.07;100.00;98955.63;5071579;28;19927;-61
2023/04/01 02:09:21;;;;;;;11.55;7.75;;;;;;;9.07;100.00;98963.50;5069895;28;20067;-61
2023/04/01 02:11:52;;;;;;;11.18;6.35;;;;;;;9.08;100.00;98972.19;5070450;28;20045;-60
2023/04/01 02:14:23;;;;;;;11.00;5.95;;;;;;;9.00;100.00;98977.28;5074107;28;20052;-60
2023/04/01 02:16:56;;;;;;;12.02;6.00;;;;;;;9.03;100.00;98971.78;5075213;28;20048;-59
2023/04/01 02:19:28;;;;;;;12.45;5.32;;;;;;;8.99;100.00;98984.34;5072886;28;20048;-60
2023/04/01 02:22:02;;;;;;;14.65;5.00;;;;;;;9.00;100.00;98982.53;5069622;28;20053;-60
2023/04/01 02:24:34;;;;;;;15.85;5.88;;;;;;;8.99;100.00;98975.66;5068094;28;20049;-60
2023/04/01 02:27:02;;;;;;;15.00;5.00;;;;;;;8.95;100.00;98978.50;5051226;28;20094;-60
2023/04/01 02:29:31;;;;;;;14.98;5.50;;;;;;;9.02;100.00;98996.34;5055099;28;20461;-61
2023/04/01 02:32:00;;;;;;;13.13;5.20;;;;;;;9.01;100.00;98976.31;5054994;28;20041;-60
2023/04/01 02:34:29;;;;;;;11.93;4.95;;;;;;;9.01;100.00;98978.94;5055179;28;20055;-61
2023/04/01 02:36:58;;;;;;;13.52;5.60;;;;;;;8.99;100.00;98996.63;5057145;28;20140;-60
2023/04/01 02:39:27;;;;;;;10.70;4.68;;;;;;;8.92;100.00;98984.03;5062765;28;20048;-59
2023/04/01 02:41:55;;;;;;;9.10;4.35;;;;;;;8.93;100.00;98990.94;5064104;28;20396;-60
2023/04/01 02:44:23;;;;;;;9.82;5.05;;;;;;;8.88;100.00;99001.00;5065168;28;20203;-60
2023/04/01 02:46:52;;;;;;;11.35;5.35;;;;;;;8.90;100.00;98999.09;5065003;28;20051;-61
2023/04/01 02:49:21;;;;;;;12.57;5.63;;;;;;;8.93;100.00;98990.94;5066200;28;20446;-61
2023/04/01 02:51:49;;;;;;;14.07;5.63;;;;;;;8.95;100.00;99003.91;5059820;28;20041;-61
2023/04/01 02:54:18;;;;;;;13.25;5.72;;;;;;;8.94;100.00;99005.72;5058735;28;20128;-61
2023/04/01 02:56:46;;;;;;;12.20;5.70;;;;;;;8.99;100.00;99005.31;5055916;28;20049;-60
2023/04/01 02:59:15;;;;;;;12.73;5.15;;;;;;;8.91;100.00;99008.59;5060709;28;20075;-62
2023/04/01 03:01:45;;;;;;;10.63;5.30;;;;;;;8.92;100.00;98991.91;5061380;28;20037;-59
2023/04/01 03:04:13;;;;;;;7.60;4.35;;;;;;;8.91;100.00;98998.09;5072230;28;20067;-60
2023/04/01 03:06:42;;;;;;;8.95;4.75;;;;;;;8.89;100.00;99000.03;5060001;28;20048;-61
2023/04/01 03:09:10;;;;;;;9.82;4.43;;;;;;;8.86;100.00;99000.31;5062979;28;20094;-60
2023/04/01 03:11:40;;;;;;;8.02;4.00;;;;;;;8.85;100.00;99001.28;5061033;28;20068;-60
2023/04/01 03:14:08;;;;;;;8.90;4.32;;;;;;;8.87;100.00;99003.75;5056435;28;20067;-62
2023/04/01 03:16:36;;;;;;;9.55;3.85;;;;;;;8.88;100.00;99006.25;5059786;28;20051;-60
2023/04/01 03:19:04;;;;;;;6.45;3.47;;;;;;;8.86;100.00;99005.56;5064448;28;20045;-60
2023/04/01 03:21:33;;;;;;;7.53;3.97;;;;;;;8.91;100.00;99010.38;5061699;28;20055;-60
2023/04/01 03:24:01;;;;;;;7.32;3.60;;;;;;;8.86;100.00;99016.06;5059593;28;20131;-60
2023/04/01 03:26:29;;;;;;;7.60;3.80;;;;;;;8.85;100.00;99010.91;5060228;28;20052;-60
2023/04/01 03:28:59;;;;;;;7.25;4.03;;;;;;;8.79;100.00;99014.91;5059348;28;20072;-60
2023/04/01 03:31:27;;;;;;;7.93;4.05;;;;;;;8.78;100.00;99008.84;5056331;28;20783;-61
2023/04/01 03:33:55;;;;;;;8.35;3.95;;;;;;;8.79;100.00;99012.28;5056733;28;20044;-60
2023/04/01 03:36:23;;;;;;;6.53;3.60;;;;;;;8.77;100.00;99016.84;5062454;28;20045;-61
2023/04/01 03:38:52;;;;;;;7.13;3.42;;;;;;;8.82;100.00;99017.28;5060419;28;20053;-60
2023/04/01 03:41:20;;;;;;;6.70;3.80;;;;;;;8.82;100.00;99017.28;5056287;28;20037;-61
2023/04/01 03:43:48;;;;;;;6.50;3.25;;;;;;;8.79;100.00;99021.00;5050913;28;20064;-60
2023/04/01 03:46:20;;;;;;;5.70;3.05;;;;;;;8.76;100.00;99025.66;5061414;28;20045;-60
2023/04/01 03:48:48;;;;;;;7.00;3.35;;;;;;;8.80;100.00;99016.56;5058428;28;20052;-60
2023/04/01 03:51:19;;;;;;;6.15;3.15;;;;;;;8.78;100.00;99021.94;5054399;28;20487;-60
2023/04/01 03:53:47;;;;;;;6.75;3.58;;;;;;;8.77;100.00;99017.66;5061750;28;20049;-60
2023/04/01 03:56:15;;;;;;;7.05;3.30;;;;;;;8.74;100.00;99022.31;5062868;28;20080;-60
2023/04/01 03:58:43;;;;;;;7.00;3.60;;;;;;;8.74;100.00;99017.94;5063907;28;20135;-60
2023/04/01 04:01:16;;;;;;;7.88;3.97;;;;;;;8.76;100.00;99028.28;5062876;28;20101;-61
2023/04/01 04:03:46;;;;;;;7.88;3.70;;;;;;;8.76;100.00;99021.22;5073237;28;20039;-61
2023/04/01 04:06:15;;;;;;;8.02;4.07;;;;;;;8.74;100.00;99025.78;5072162;28;20053;-60
2023/04/01 04:08:46;;;;;;;8.48;4.47;;;;;;;8.70;100.00;99026.19;5067400;28;20036;-60
2023/04/01 04:11:14;;;;;;;7.63;3.72;;;;;;;8.72;100.00;99030.31;5067898;28;20177;-60
2023/04/01 04:13:43;;;;;;;6.55;3.80;;;;;;;8.72;100.00;99030.31;5071125;28;20075;-60
2023/04/01 04:16:11;;;;;;;10.10;4.32;;;;;;;8.73;100.00;99032.00;5073319;28;20459;-60
2023/04/01 04:18:40;;;;;;;8.48;4.18;;;;;;;8.68;100.00;99035.97;5063511;28;20119;-61
2023/04/01 04:21:15;;;;;;;7.82;4.38;;;;;;;8.61;100.00;99046.97;5064383;28;20074;-60
2023/04/01 04:23:44;;;;;;;7.30;4.20;;;;;;;8.60;100.00;99040.09;5064781;28;20040;-61
2023/04/01 04:26:14;;;;;;;8.07;4.25;;;;;;;8.60;100.00;99041.88;5062920;28;20040;-60
2023/04/01 04:28:42;;;;;;;8.23;4.55;;;;;;;8.59;100.00;99043.66;5060863;28;20053;-60
2023/04/01 04:31:10;;;;;;;9.23;4.90;;;;;;;8.64;100.00;99038.03;5062887;28;20500;-60
2023/04/01 04:33:39;;;;;;;8.63;5.07;;;;;;;8.61;100.00;99054.00;5059679;28;20064;-60
2023/04/01 04:36:08;;;;;;;8.32;5.10;;;;;;;8.63;100.00;99047.69;5055601;28;20107;-60
2023/04/01 04:38:37;;;;;;;10.07;5.68;;;;;;;8.61;100.00;99048.78;5056793;28;20036;-60
2023/04/01 04:41:10;;;;;;;9.57;5.55;;;;;;;8.58;100.00;99042.00;5047042;28;20056;-61
2023/04/01 04:43:38;;;;;;;9.20;5.53;;;;;;;8.58;100.00;99049.03;5058947;28;20119;-61
2023/04/01 04:46:07;;;;;;;9.60;5.43;;;;;;;8.62;100.00;99051.25;5060112;28;20445;-61
2023/04/01 04:48:35;;;;;;;10.18;5.95;;;;;;;8.60;100.00;99047.94;5057784;28;20538;-61
2023/04/01 04:51:04;;;;;;;11.38;6.45;;;;;;;8.60;100.00;99054.97;5056157;28;20503;-61
2023/04/01 04:53:32;;;;;;;9.82;6.18;;;;;;;8.59;100.00;99053.31;5058322;28;20060;-61
2023/04/01 04:56:02;;;;;;;11.10;6.13;;;;;;;8.72;100.00;99051.28;5063227;28;20143;-61
2023/04/01 04:58:33;;;;;;;9.63;6.60;;;;;;;8.72;100.00;99053.09;5059238;28;20109;-61
2023/04/01 05:01:06;;;;;;;10.20;6.38;;;;;;;8.67;100.00;99065.75;5060462;28;20503;-61
2023/04/01 05:03:35;;;;;;;11.20;6.45;;;;;;;8.65;100.00;99065.06;5063775;28;20037;-60
2023/04/01 05:06:03;;;;;;;9.35;6.35;;;;;;;8.66;100.00;99062.31;5062564;28;20041;-60
2023/04/01 05:08:32;;;;;;;12.45;7.00;;;;;;;8.66;100.00;99066.72;5062550;28;20094;-60
2023/04/01 05:11:03;;;;;;;11.38;7.28;;;;;;;8.67;100.00;99068.38;5071348;28;20048;-61
2023/04/01 05:13:31;;;;;;;11.85;7.20;;;;;;;8.68;100.00;99064.81;5056161;28;20052;-61
2023/04/01 05:15:59;;;;;;;11.55;7.22;;;;;;;8.65;100.00;99072.94;5053410;28;20060;-61
2023/04/01 05:18:28;;;;;;;11.10;7.22;;;;;;;8.64;100.00;99074.72;5061380;28;20044;-61
2023/04/01 05:20:56;;;;;;;13.45;7.32;;;;;;;8.64;100.00;99074.72;5057065;28;20091;-61
2023/04/01 05:23:24;;;;;;;11.70;7.55;;;;;;;8.68;100.00;99077.91;5063414;28;20044;-61
2023/04/01 05:25:53;;;;;;;12.07;7.32;;;;;;;8.67;100.00;99077.09;5062141;28;20503;-61
2023/04/01 05:28:22;;;;;;;11.45;7.50;;;;;;;8.68;100.00;99083.16;5059591;28;20049;-61
2023/04/01 05:30:50;;;;;;;11.88;7.78;;;;;;;8.69;100.00;99087.44;5061585;28;20187;-60
2023/04/01 05:33:18;;;;;;;11.02;7.30;;;;;;;8.69;100.00;99090.88;5061367;28;20033;-61
2023/04/01 05:35:47;;;;;;;12.45;7.88;;;;;;;8.70;100.00;99091.69;5060165;28;20094;-61
2023/04/01 05:38:15;;;;;;;12.73;7.50;;;;;;;8.66;100.00;99087.69;5059258;28;20068;-61
2023/04/01 05:40:46;;;;;;;12.00;7.80;;;;;;;8.67;100.00;99100.69;5056580;28;20415;-61
2023/04/01 05:43:14;;;;;;;12.05;8.23;;;;;;;8.67;100.00;99097.22;5057888;28;20456;-61
2023/04/01 05:45:43;;;;;;;13.18;8.48;;;;;;;8.65;100.00;99101.75;5056592;28;20055;-61
2023/04/01 05:48:11;;;;;;;13.48;9.00;;;;;;;8.70;100.00;99105.66;5052752;28;20051;-61
2023/04/01 05:50:42;;;;;;;14.68;9.77;;;;;;;8.72;100.00;99100.28;5059043;28;20094;-61
2023/04/01 05:53:10;;;;;;;13.05;8.55;;;;;;;8.75;100.00;99116.56;5057994;28;20513;-61
2023/04/01 05:55:38;;;;;;;14.40;9.77;;;;;;;8.74;100.00;99117.53;5057791;28;20040;-61
2023/04/01 05:58:06;;;;;;;12.35;8.68;;;;;;;8.78;100.00;99118.09;5061384;28;20037;-61
2023/04/01 06:00:34;;;;;;;11.93;7.63;;;;;;;8.79;100.00;99130.22;5057946;28;20141;-62
2023/04/01 06:03:04;;;;;;;11.93;7.20;;;;;;;8.76;100.00;99122.63;5060284;28;20036;-59
2023/04/01 06:05:40;;;;;;;11.32;6.80;;;;;;;8.75;100.00;99129.69;5055414;28;20052;-59
2023/04/01 06:08:13;;;;;;;13.15;6.85;;;;;;;8.74;100.00;99130.63;5055397;28;20040;-60
2023/04/01 06:10:54;;;;;;;12.68;6.88;;;;;;;8.77;100.00;99137.41;5062708;28;20044;-60
2023/04/01 06:13:37;;;;;;;12.57;7.40;;;;;;;8.77;100.00;99151.34;5069352;28;20033;-60
2023/04/01 06:16:16;;;;;;;12.50;7.10;;;;;;;8.74;100.00;99148.97;5062905;28;20052;-59
2023/04/01 06:19:11;;;;;;;13.52;7.00;;;;;;;8.76;100.00;99146.22;5063041;28;20051;-60
2023/04/01 06:22:03;;;;;;;15.15;7.45;;;;;;;8.79;100.00;99159.91;5066092;28;20041;-60
2023/04/01 06:24:48;;;;;;;15.43;6.80;;;;;;;8.77;100.00;99161.81;5061469;28;20069;-60
2023/04/01 06:27:28;;;;;;;14.52;7.70;;;;;;;8.73;100.00;99168.28;5063780;28;20049;-60
2023/04/01 06:30:09;;;;;;;16.98;8.88;;;;;;;8.77;100.00;99167.06;5062890;28;20041;-60
2023/04/01 06:32:57;;;;;;;17.38;8.45;;;;;;;8.76;100.00;99168.00;5059992;28;20503;-60
2023/04/01 06:35:51;;;;;;;16.25;7.38;;;;;;;8.79;100.00;99180.03;5060420;28;20546;-61
2023/04/01 06:38:29;;;;;;;;;;;;;;;8.75;100.00;99181.25;5062809;28;20719;-62
2023/04/01 06:41:18;;;;;;;17.58;7.35;;;;;;;8.80;100.00;99187.78;5057146;28;19931;-61
2023/04/01 06:43:59;;;;;;;19.63;8.38;;;;;;;8.86;100.00;99189.06;5063220;28;20036;-61
2023/04/01 06:46:35;;;;;;;16.50;7.75;;;;;;;8.86;100.00;99190.84;5057176;28;20485;-62
2023/04/01 06:49:22;;;;;;;19.75;9.45;;;;;;;8.86;100.00;99194.31;5058399;28;20056;-62
2023/04/01 06:52:00;;;;;;;21.20;8.65;;;;;;;8.95;100.00;99203.19;5061498;28;20067;-62
2023/04/01 06:54:33;;;;;;;17.75;7.90;;;;;;;8.99;100.00;99209.81;5066702;28;20052;-62
2023/04/01 06:57:03;;;;;;;;;;;;;;;9.05;100.00;99209.31;5065721;28;20403;-62
2023/04/01 06:59:33;;;;;;;19.27;9.15;;;;;;;9.02;100.00;99219.22;5062973;28;20003;-62
2023/04/01 07:02:15;;;;;;;20.30;8.23;;;;;;;8.97;100.00;99219.59;5057162;28;20080;-61
2023/04/01 07:04:47;;;;;;;19.83;7.55;;;;;;;9.06;100.00;99224.06;5060785;28;20527;-61
2023/04/01 07:07:25;;;;;;;17.35;8.10;;;;;;;9.08;100.00;99226.56;5056797;28;20378;-61
2023/04/01 07:09:58;;;;;;;15.35;7.05;;;;;;;9.07;100.00;99224.91;5065198;28;20515;-61
2023/04/01 07:12:39;;;;;;;14.43;5.97;;;;;;;9.07;100.00;99227.53;5065147;28;20093;-58
2023/04/01 07:15:17;;;;;;;14.77;6.53;;;;;;;9.12;100.00;99235.84;5060859;28;20048;-61
2023/04/01 07:17:47;;;;;;;14.70;5.95;;;;;;;9.14;100.00;99237.38;5061336;28;20056;-61
2023/04/01 07:20:23;;;;;;;15.40;6.53;;;;;;;9.19;100.00;99230.91;5063397;28;20507;-60
2023/04/01 07:22:55;;;;;;;11.18;5.13;;;;;;;9.21;100.00;99239.47;5062984;28;20098;-61
2023/04/01 07:25:25;;;;;;;;;;;;;;;9.22;100.00;99252.47;5068579;28;20036;-60
2023/04/01 07:27:57;;;;;;;10.35;4.40;;;;;;;9.24;100.00;99255.81;5066454;28;19921;-61
2023/04/01 07:30:28;;;;;;;12.57;4.30;;;;;;;9.27;100.00;99249.44;5059576;28;20076;-60
2023/04/01 07:33:05;;;;;;;9.93;4.40;;;;;;;9.30;100.00;99250.03;5059618;28;20090;-61
2023/04/01 07:35:40;;;;;;;9.32;3.92;;;;;;;9.35;100.00;99267.16;5056168;28;20048;-61
2023/04/01 07:38:23;;;;;;;8.90;3.92;;;;;;;9.39;100.00;99260.69;5059452;28;20051;-61
2023/04/01 07:41:04;;;;;;;8.82;3.92;;;;;;;9.44;100.00;99263.75;5056705;28;20551;-61
2023/04/01 07:43:54;;;;;;;8.70;3.20;;;;;;;9.45;100.00;99273.31;5067393;28;20048;-61
2023/04/01 07:46:34;;;;;;;8.73;3.10;;;;;;;9.44;100.00;99274.25;5061220;28;20311;-61
2023/04/01 07:49:07;;;;;;;6.63;2.53;;;;;;;9.49;100.00;99279.94;5059873;28;20187;-61
2023/04/01 07:51:41;;;;;;;7.93;2.70;;;;;;;9.54;100.00;99280.38;5060372;28;20048;-60
2023/04/01 07:54:18;;;;;;;5.53;2.42;;;;;;;9.57;100.00;99287.16;5059847;28;20045;-61
2023/04/01 07:56:55;;;;;;;5.60;2.30;;;;;;;9.64;100.00;99289.13;5061586;28;20067;-61
2023/04/01 07:59:32;;;;;;;7.93;2.78;;;;;;;9.72;100.00;99285.00;5060943;28;20098;-59
2023/04/01 08:02:09;;;;;;;12.02;3.83;;;;;;;9.86;100.00;99295.16;5059969;28;20086;-61
2023/04/01 08:04:51;;;;;;;9.15;4.32;;;;;;;9.90;100.00;99303.59;5060547;28;20429;-62
2023/04/01 08:07:24;;;;;;;8.38;3.47;;;;;;;9.94;100.00;99305.00;5055201;28;20053;-61
2023/04/01 08:10:00;;;;;;;7.85;3.33;;;;;;;10.03;100.00;99305.97;5055417;28;20085;-60
2023/04/01 08:12:43;;;;;;;8.73;3.08;;;;;;;10.06;100.00;99311.81;5057506;28;20053;-61
2023/04/01 08:15:22;;;;;;;6.93;2.53;;;;;;;10.12;100.00;99313.88;5055342;28;20492;-60
2023/04/01 08:18:02;;;;;;;6.10;2.63;;;;;;;10.13;100.00;99317.38;5061301;28;20056;-61
2023/04/01 08:20:37;;;;;;;6.65;2.60;;;;;;;10.17;100.00;99324.00;5057642;28;20052;-60
2023/04/01 08:23:11;;;;;;;5.15;2.20;;;;;;;10.23;100.00;99327.88;5055373;28;20044;-62
2023/04/01 08:25:48;;;;;;;5.10;2.15;;;;;;;10.30;100.00;99331.63;5052898;28;20762;-60
2023/04/01 08:28:21;;;;;;;5.75;2.63;;;;;;;10.25;100.00;99331.19;5057986;28;20036;-61
2023/04/01 08:30:55;;;;;;;5.65;2.60;;;;;;;10.31;100.00;99331.50;5059122;28;20049;-60
2023/04/01 08:33:27;;;;;;;4.97;2.33;;;;;;;10.32;100.00;99345.44;5063136;28;20094;-61
2023/04/01 08:36:00;;;;;;;4.85;2.22;;;;;;;10.31;100.00;99344.63;5055538;28;20090;-61
2023/04/01 08:38:34;;;;;;;4.72;2.03;;;;;;;10.26;100.00;99346.81;5059896;28;20052;-61
2023/04/01 08:41:13;;;;;;;5.53;2.55;;;;;;;10.34;100.00;99353.22;5057148;28;20060;-61
2023/04/01 08:44:05;;;;;;;4.90;2.33;;;;;;;10.39;100.00;99351.03;5053042;28;20511;-61
2023/04/01 08:47:02;;;;;;;5.28;2.30;;;;;;;10.39;100.00;99356.28;5055174;28;20044;-61
2023/04/01 08:49:49;;;;;;;5.95;2.30;;;;;;;10.39;100.00;99362.41;5055703;28;20110;-61
2023/04/01 08:52:28;;;;;;;6.45;2.30;;;;;;;10.42;100.00;99359.50;5058185;28;20060;-61
2023/04/01 08:55:16;;;;;;;3.13;1.50;;;;;;;10.40;100.00;99364.06;5058740;28;20056;-61
2023/04/01 08:58:00;;;;;;;5.00;1.35;;;;;;;10.47;100.00;99370.44;5057421;28;20075;-61
2023/04/01 09:00:33;;;;;;;3.38;1.30;;;;;;;10.54;100.00;99372.50;5059889;28;20052;-61
2023/04/01 09:03:26;;;;;;;2.25;0.95;;;;;;;10.47;100.00;99375.69;5058856;28;20065;-61
2023/04/01 09:06:29;;;;;;;1.45;0.77;;;;;;;10.41;100.00;99378.84;5022291;28;21271;-61
2023/04/01 09:09:34;;;;;;;1.52;0.85;;;;;;;10.39;100.00;99386.03;5061925;28;20095;-61
2023/04/01 09:12:37;;;;;;;2.35;0.80;;;;;;;10.42;100.00;99390.22;5060657;28;20515;-61
2023/04/01 09:15:25;;;;;;;2.58;1.10;;;;;;;10.33;100.00;99394.41;5060979;28;20434;-60
2023/04/01 09:18:16;;;;;;;1.33;0.85;;;;;;;10.32;100.00;99393.59;5058095;28;20052;-60
2023/04/01 09:20:53;;;;;;;1.23;0.70;;;;;;;10.40;100.00;99397.38;5052676;28;20091;-60
2023/04/01 09:23:55;;;;;;;3.47;1.27;;;;;;;10.55;100.00;99395.19;5058052;28;20086;-60
2023/04/01 09:26:44;;;;;;;2.53;1.10;;;;;;;10.65;100.00;99401.31;5060983;28;20037;-60
2023/04/01 09:29:31;;;;;;;2.58;1.13;;;;;;;10.60;100.00;99406.16;5059456;28;20064;-60
2023/04/01 09:32:20;;;;;;;2.10;1.10;;;;;;;10.69;100.00;99412.38;5052794;28;20037;-60
2023/04/01 09:34:56;;;;;;;3.22;1.48;;;;;;;10.87;100.00;99417.84;5059758;28;20116;-60
2023/04/01 09:37:35;;;;;;;2.67;1.08;;;;;;;10.67;100.00;99417.78;5061527;28;20488;-61
2023/04/01 09:40:16;;;;;;;3.55;1.60;;;;;;;10.69;100.00;99423.75;5059302;28;20376;-60
2023/04/01 09:42:53;;;;;;;2.40;1.15;;;;;;;10.61;100.00;99432.31;5063535;28;20113;-60
2023/04/01 09:45:43;;;;;;;3.67;1.42;;;;;;;10.65;100.00;99431.06;5058253;28;20048;-61
2023/04/01 09:48:32;;;;;;;2.47;1.10;;;;;;;10.58;100.00;99435.22;5060732;28;20527;-61
2023/04/01 09:51:12;;;;;;;3.22;1.50;;;;;;;10.67;100.00;99438.00;5061819;28;20044;-61
2023/04/01 09:53:57;;;;;;;2.70;1.70;;;;;;;10.62;100.00;99439.22;5061751;28;20048;-60
2023/04/01 09:56:53;;;;;;;5.25;1.80;;;;;;;10.76;100.00;99442.44;5060293;28;20045;-61
2023/04/01 10:00:03;;;;;;;3.42;1.52;;;;;;;10.76;100.00;99452.97;5056885;28;20052;-61
2023/04/01 10:03:09;;;;;;;2.90;1.30;;;;;;;10.65;100.00;99454.72;5064203;28;20059;-61
2023/04/01 10:06:20;;;;;;;2.55;1.25;;;;;;;10.57;100.00;99459.81;5070559;28;20075;-61
2023/04/01 10:09:36;;;;;;;2.20;1.17;;;;;;;10.56;100.00;99462.59;5065199;28;20053;-61
2023/04/01 10:12:29;;;;;;;2.60;1.50;;;;;;;10.44;100.00;99461.84;5061733;28;20040;-61
2023/04/01 10:15:42;;;;;;;2.88;1.30;;;;;;;10.41;100.00;99473.47;5059561;28;20112;-61
2023/04/01 10:18:49;;;;;;;2.78;1.40;;;;;;;10.43;100.00;99473.31;5052858;28;20143;-61
2023/04/01 10:22:22;;;;;;;3.20;1.52;;;;;;;10.32;100.00;99482.94;5061796;28;20496;-61
2023/04/01 10:25:31;;;;;;;4.78;2.00;;;;;;;10.36;100.00;99480.94;4958135;28;20047;-61
2023/04/01 10:28:26;;;;;;;5.47;2.38;;;;;;;10.40;100.00;99481.47;5016856;28;20196;-61
2023/04/01 10:31:21;;;;;;;5.80;2.40;;;;;;;10.42;100.00;99487.44;5059070;28;20523;-61
2023/04/01 10:34:26;;;;;;;7.32;3.42;;;;;;;10.37;100.00;99492.25;5058673;28;20036;-61
2023/04/01 10:36:55;;;;;;;5.40;2.60;;;;;;;10.37;100.00;99487.00;5016442;28;20500;-60
2023/04/01 10:39:57;;;;;;;5.70;2.90;;;;;;;10.46;100.00;99494.09;5063044;28;20126;-60
2023/04/01 10:42:56;;;;;;;7.32;3.58;;;;;;;10.55;100.00;99493.31;5063285;28;21828;-61
2023/04/01 10:45:52;;;;;;;6.35;3.33;;;;;;;10.53;100.00;99495.22;5059152;28;20476;-61
2023/04/01 10:49:05;;;;;;;8.48;3.80;;;;;;;10.58;100.00;99495.69;5063075;28;20119;-62
2023/04/01 10:52:13;;;;;;;7.10;3.53;;;;;;;10.61;100.00;99508.53;5062419;28;20059;-61
2023/04/01 10:54:48;;;;;;;8.13;4.18;;;;;;;10.74;100.00;99502.22;5062646;28;20074;-61
2023/04/01 10:57:45;;;;;;;8.18;4.18;;;;;;;10.82;100.00;99502.38;5059001;28;20052;-61
2023/04/01 11:00:33;;;;;;;8.77;4.95;;;;;;;10.91;100.00;99504.22;5068198;28;20051;-61
2023/04/01 11:03:50;;;;;;;9.82;5.38;;;;;;;10.97;100.00;99511.53;5065239;28;20455;-60
2023/04/01 11:06:50;;;;;;;9.55;5.78;;;;;;;11.03;100.00;99511.97;5020136;28;20506;-61
2023/04/01 11:09:48;;;;;;;10.05;5.60;;;;;;;11.08;100.00;99515.03;5063925;28;20040;-61
2023/04/01 11:12:48;;;;;;;8.88;5.20;;;;;;;11.11;100.00;99515.63;5058459;28;20450;-61
2023/04/01 11:15:40;;;;;;;10.25;5.57;;;;;;;11.08;100.00;99521.13;5063355;28;20048;-60
2023/04/01 11:18:47;;;;;;;11.50;6.07;;;;;;;11.14;100.00;99519.78;5062701;28;20448;-60
2023/04/01 11:21:54;;;;;;;10.38;6.10;;;;;;;11.14;100.00;99525.03;5066113;28;20090;-61
2023/04/01 11:24:53;;;;;;;9.68;5.85;;;;;;;11.06;100.00;99527.50;5060075;28;20419;-61
2023/04/01 11:27:45;;;;;;;10.45;6.13;;;;;;;11.02;100.00;99526.13;5062326;28;20101;-61
2023/04/01 11:30:25;;;;;;;10.70;5.65;;;;;;;10.94;100.00;99530.25;5061120;28;20162;-60
2023/04/01 11:33:03;;;;;;;12.30;6.40;;;;;;;11.04;100.00;99534.69;5057307;28;20102;-61
2023/04/01 11:35:48;;;;;;;10.77;5.50;;;;;;;10.98;100.00;99534.25;5058012;28;20052;-60
2023/04/01 11:38:32;;;;;;;8.38;4.55;;;;;;;10.88;100.00;99548.34;5063700;28;20079;-61
2023/04/01 11:41:10;;;;;;;7.93;3.92;;;;;;;10.86;100.00;99552.94;5063584;28;20075;-61
2023/04/01 11:43:43;;;;;;;3.30;1.58;;;;;;;10.69;100.00;99560.47;5061454;28;20048;-61
2023/04/01 11:46:16;;;;;;;3.30;1.30;;;;;;;10.64;100.00;99552.97;5069885;28;20064;-61
2023/04/01 11:49:05;;;;;;;1.77;0.80;;;;;;;10.62;100.00;99554.06;5063460;28;20045;-61
2023/04/01 11:52:00;;;;;;;2.17;0.93;;;;;;;10.67;100.00;99554.50;5062642;28;20118;-61
2023/04/01 11:54:42;;;;;;;1.60;0.93;;;;;;;10.76;100.00;99560.78;5063065;28;20135;-61
2023/04/01 11:57:29;;;;;;;4.25;1.42;;;;;;;10.81;100.00;99563.81;5063519;28;20522;-61
2023/04/01 12:00:27;;;;;;;4.75;1.60;;;;;;;10.80;100.00;99565.63;5063491;28;20040;-61
2023/04/01 12:03:11;;;;;;;4.95;1.75;;;;;;;10.69;100.00;99567.50;5062502;28;20090;-61
2023/04/01 12:05:47;;;;;;;4.40;2.10;;;;;;;10.65;100.00;99566.97;5067878;28;20052;-61
2023/04/01 12:08:29;;;;;;;2.72;1.20;;;;;;;10.52;100.00;99576.84;5060603;28;20060;-61
2023/04/01 12:11:04;;;;;;;2.60;1.13;;;;;;;10.55;100.00;99572.19;5072960;28;20048;-61
2023/04/01 12:13:44;;;;;;;1.63;0.90;;;;;;;10.52;100.00;99588.19;5066488;28;20527;-60
2023/04/01 12:16:38;;;;;;;1.20;0.90;;;;;;;10.42;100.00;99582.88;5060345;28;20395;-60
2023/04/01 12:19:17;;;;;;;2.67;1.20;;;;;;;10.49;100.00;99589.28;5069253;28;20048;-61